createdAt,value
2018-02-25T00:00:29.563Z,89.00
2018-02-25T00:02:58.394Z,89.40
2018-02-25T00:05:26.903Z,89.20
2018-02-25T00:07:55.239Z,90.00
2018-02-25T00:10:23.483Z,89.50
2018-02-25T00:12:51.793Z,89.90
2018-02-25T00:15:20.324Z,90.30
2018-02-25T00:17:48.552Z,90.50
2018-02-25T00:20:16.834Z,90.10
2018-02-25T00:22:45.054Z,90.30
2018-02-25T00:25:13.327Z,90.70
2018-02-25T00:27:41.591Z,90.40
2018-02-25T00:30:10.600Z,90.10
2018-02-25T00:32:38.887Z,90.10
2018-02-25T00:35:07.309Z,90.20
2018-02-25T00:37:36.330Z,90.10
2018-02-25T00:40:05.474Z,90.50
2018-02-25T00:42:33.754Z,90.50
2018-02-25T00:45:02.052Z,90.80
2018-02-25T00:47:30.301Z,90.10
2018-02-25T00:49:58.567Z,90.10
2018-02-25T00:52:26.862Z,90.50
2018-02-25T00:54:55.106Z,90.50
2018-02-25T00:57:23.357Z,90.20
2018-02-25T00:59:51.645Z,90.30
2018-02-25T01:02:19.949Z,89.90
2018-02-25T01:04:48.204Z,89.60
2018-02-25T01:07:16.496Z,90.50
2018-02-25T01:09:44.796Z,90.60
2018-02-25T01:12:13.068Z,90.40
2018-02-25T01:14:42.111Z,89.30
2018-02-25T01:17:10.317Z,89.30
2018-02-25T01:19:38.593Z,90.10
2018-02-25T01:22:07.594Z,90.20
2018-02-25T01:24:35.890Z,90.20
2018-02-25T01:27:04.164Z,90.00
2018-02-25T01:29:32.425Z,90.00
2018-02-25T01:32:01.565Z,90.10
2018-02-25T01:34:29.840Z,90.10
2018-02-25T01:36:58.101Z,90.00
2018-02-25T01:39:26.338Z,90.10
2018-02-25T01:41:55.044Z,90.30
2018-02-25T01:44:23.391Z,90.40
2018-02-25T01:46:51.595Z,90.40
2018-02-25T01:49:20.639Z,91.00
2018-02-25T01:51:48.906Z,91.00
2018-02-25T01:54:17.185Z,90.80
2018-02-25T01:56:45.444Z,91.30
2018-02-25T01:59:14.186Z,91.20
2018-02-25T02:01:42.692Z,91.30
2018-02-25T02:04:10.972Z,91.80
2018-02-25T02:06:39.999Z,91.10
2018-02-25T02:09:08.275Z,91.10
2018-02-25T02:11:36.566Z,91.30
2018-02-25T02:14:04.873Z,91.80
2018-02-25T02:16:34.174Z,90.90
2018-02-25T02:19:02.805Z,91.20
2018-02-25T02:21:31.064Z,91.30
2018-02-25T02:23:59.327Z,92.90
2018-02-25T02:26:28.374Z,91.90
2018-02-25T02:28:56.654Z,91.90
2018-02-25T02:31:25.110Z,91.70
2018-02-25T02:33:53.349Z,91.60
2018-02-25T02:36:22.394Z,91.20
2018-02-25T02:38:50.655Z,91.20
2018-02-25T02:41:18.971Z,90.60
2018-02-25T02:43:47.684Z,91.20
2018-02-25T02:46:16.004Z,91.50
2018-02-25T02:48:44.329Z,91.00
2018-02-25T02:51:13.026Z,91.00
2018-02-25T02:53:41.320Z,91.20
2018-02-25T02:56:10.363Z,91.30
2018-02-25T02:58:38.754Z,91.20
2018-02-25T03:01:07.828Z,91.30
2018-02-25T03:03:37.029Z,91.90
2018-02-25T03:06:05.322Z,90.50
2018-02-25T03:08:35.091Z,91.20
2018-02-25T03:11:04.191Z,91.20
2018-02-25T03:13:33.592Z,91.20
2018-02-25T03:16:02.703Z,90.90
2018-02-25T03:18:31.534Z,90.90
2018-02-25T03:21:03.367Z,90.50
2018-02-25T03:23:31.606Z,91.10
2018-02-25T03:26:00.658Z,90.80
2018-02-25T03:28:28.933Z,90.80
2018-02-25T03:30:57.286Z,90.90
2018-02-25T03:33:27.909Z,90.40
2018-02-25T03:35:56.174Z,90.60
2018-02-25T03:38:24.448Z,90.20
2018-02-25T03:40:53.274Z,90.80
2018-02-25T03:43:22.267Z,90.50
2018-02-25T03:45:52.358Z,90.30
2018-02-25T03:48:21.479Z,90.30
2018-02-25T03:50:49.743Z,90.30
2018-02-25T03:53:18.046Z,90.90
2018-02-25T03:55:47.645Z,90.40
2018-02-25T03:58:17.084Z,90.40
2018-02-25T04:00:45.330Z,90.40
2018-02-25T04:03:13.970Z,90.80
2018-02-25T04:05:42.197Z,90.10
2018-02-25T04:08:11.481Z,90.20
2018-02-25T04:10:39.733Z,90.50
2018-02-25T04:13:09.002Z,90.50
2018-02-25T04:15:37.266Z,90.50
2018-02-25T04:18:05.547Z,90.80
2018-02-25T04:20:33.823Z,90.70
2018-02-25T04:23:02.091Z,90.60
2018-02-25T04:25:31.277Z,90.60
2018-02-25T04:28:00.743Z,91.10
2018-02-25T04:30:29.380Z,90.80
2018-02-25T04:32:58.786Z,90.70
2018-02-25T04:35:27.060Z,90.60
2018-02-25T04:37:56.151Z,90.70
2018-02-25T04:40:24.417Z,90.90
2018-02-25T04:42:53.602Z,91.40
2018-02-25T04:45:21.867Z,91.40
2018-02-25T04:47:51.690Z,92.10
2018-02-25T04:50:19.963Z,92.10
2018-02-25T04:52:50.186Z,93.20
2018-02-25T04:55:18.453Z,93.10
2018-02-25T04:57:47.481Z,92.70
2018-02-25T05:00:18.531Z,92.70
2018-02-25T05:02:46.854Z,93.50
2018-02-25T05:05:17.015Z,93.70
2018-02-25T05:07:46.255Z,93.60
2018-02-25T05:10:15.097Z,92.90
2018-02-25T05:12:43.404Z,92.90
2018-02-25T05:15:11.661Z,92.80
2018-02-25T05:17:39.930Z,93.30
2018-02-25T05:20:09.424Z,93.30
2018-02-25T05:22:37.880Z,93.00
2018-02-25T05:25:06.442Z,93.10
2018-02-25T05:27:35.831Z,93.00
2018-02-25T05:30:08.533Z,93.60
2018-02-25T05:32:36.791Z,93.60
2018-02-25T05:35:05.899Z,93.80
2018-02-25T05:37:35.052Z,93.50
2018-02-25T05:40:05.347Z,93.40
2018-02-25T05:42:34.054Z,93.40
2018-02-25T05:45:03.256Z,93.20
2018-02-25T05:47:32.873Z,94.20
2018-02-25T05:50:01.891Z,94.10
2018-02-25T05:52:30.161Z,94.00
2018-02-25T05:54:59.682Z,93.70
2018-02-25T05:57:30.987Z,94.10
2018-02-25T06:00:00.132Z,93.80
2018-02-25T06:02:32.062Z,95.10
2018-02-25T06:05:00.299Z,96.00
2018-02-25T06:07:29.266Z,95.60
2018-02-25T06:09:57.756Z,95.80
2018-02-25T06:12:28.992Z,96.40
2018-02-25T06:14:58.288Z,97.20
2018-02-25T06:17:27.277Z,97.10
2018-02-25T06:19:56.804Z,97.10
2018-02-25T06:22:25.791Z,96.90
2018-02-25T06:24:54.082Z,97.10
2018-02-25T06:27:22.366Z,96.70
2018-02-25T06:29:50.659Z,96.60
2018-02-25T06:32:19.478Z,96.50
2018-02-25T06:34:48.524Z,97.10
2018-02-25T06:37:17.983Z,97.10
2018-02-25T06:39:46.226Z,97.20
2018-02-25T06:42:14.484Z,97.50
2018-02-25T06:44:42.817Z,97.00
2018-02-25T06:47:11.067Z,97.10
2018-02-25T06:49:39.851Z,97.40
2018-02-25T06:52:08.145Z,97.40
2018-02-25T06:54:36.395Z,97.40
2018-02-25T06:57:04.634Z,97.20
2018-02-25T06:59:32.993Z,97.10
2018-02-25T07:02:02.034Z,97.50
2018-02-25T07:04:30.302Z,97.30
2018-02-25T07:06:58.560Z,97.10
2018-02-25T07:09:26.818Z,97.40
2018-02-25T07:11:55.879Z,97.10
2018-02-25T07:14:24.132Z,97.10
2018-02-25T07:16:52.427Z,97.10
2018-02-25T07:19:20.730Z,97.00
2018-02-25T07:21:48.970Z,96.20
2018-02-25T07:24:17.247Z,95.90
2018-02-25T07:26:46.275Z,95.90
2018-02-25T07:29:14.505Z,96.20
2018-02-25T07:31:42.754Z,96.10
2018-02-25T07:34:11.816Z,95.20
2018-02-25T07:36:40.111Z,95.10
2018-02-25T07:39:08.368Z,95.20
2018-02-25T07:41:36.637Z,95.10
2018-02-25T07:44:04.887Z,95.50
2018-02-25T07:46:33.220Z,95.00
2018-02-25T07:49:01.463Z,95.50
2018-02-25T07:51:29.793Z,95.00
2018-02-25T07:53:58.047Z,94.60
2018-02-25T07:56:26.328Z,94.70
2018-02-25T07:58:55.585Z,94.80
2018-02-25T08:01:23.878Z,94.90
2018-02-25T08:03:52.131Z,94.40
2018-02-25T08:06:20.440Z,94.30
2018-02-25T08:08:48.690Z,94.20
2018-02-25T08:11:16.996Z,94.00
2018-02-25T08:13:46.525Z,93.30
2018-02-25T08:16:14.961Z,93.20
2018-02-25T08:18:43.250Z,93.10
2018-02-25T08:21:11.515Z,91.70
2018-02-25T08:23:39.796Z,92.00
2018-02-25T08:26:08.924Z,91.20
2018-02-25T08:28:37.998Z,86.10
2018-02-25T08:31:07.066Z,85.90
2018-02-25T08:33:35.963Z,81.40
2018-02-25T08:36:04.748Z,82.30
2018-02-25T08:38:33.885Z,77.10
2018-02-25T08:41:02.092Z,77.10
2018-02-25T08:43:31.240Z,75.00
2018-02-25T08:45:59.510Z,74.60
2018-02-25T08:48:29.667Z,71.30
2018-02-25T08:50:57.945Z,71.30
2018-02-25T08:53:26.909Z,69.80
2018-02-25T08:55:56.829Z,66.40
2018-02-25T08:58:25.796Z,66.40
2018-02-25T09:00:54.838Z,61.80
2018-02-25T09:03:23.092Z,61.80
2018-02-25T09:05:51.362Z,61.20
2018-02-25T09:08:19.622Z,57.80
2018-02-25T09:10:47.934Z,56.00
2018-02-25T09:13:16.545Z,55.80
2018-02-25T09:15:44.815Z,57.00
2018-02-25T09:18:13.105Z,54.60
2018-02-25T09:20:41.755Z,50.70
2018-02-25T09:23:10.043Z,52.70
2018-02-25T09:25:38.345Z,53.10
2018-02-25T09:28:06.576Z,51.00
2018-02-25T09:30:34.865Z,51.20
2018-02-25T09:33:03.534Z,50.20
2018-02-25T09:35:31.807Z,52.10
2018-02-25T09:38:00.830Z,48.20
2018-02-25T09:40:29.126Z,48.20
2018-02-25T09:42:58.744Z,48.20
2018-02-25T09:45:27.187Z,48.90
2018-02-25T09:47:55.643Z,48.80
2018-02-25T09:50:24.704Z,43.80
2018-02-25T09:52:52.952Z,43.70
2018-02-25T09:55:21.198Z,43.10
2018-02-25T09:57:49.526Z,39.80
2018-02-25T10:00:17.812Z,40.80
2018-02-25T10:02:47.078Z,41.00
2018-02-25T10:05:15.856Z,41.00
2018-02-25T10:07:44.750Z,38.90
2018-02-25T10:10:13.754Z,37.90
2018-02-25T10:12:42.043Z,37.90
2018-02-25T10:15:10.441Z,38.70
2018-02-25T10:17:41.428Z,37.60
2018-02-25T10:20:10.522Z,37.60
2018-02-25T10:22:39.562Z,37.80
2018-02-25T10:25:07.853Z,37.80
2018-02-25T10:27:36.267Z,37.30
2018-02-25T10:30:04.580Z,38.10
2018-02-25T10:32:32.862Z,37.50
2018-02-25T10:35:01.109Z,38.50
2018-02-25T10:37:29.378Z,37.90
2018-02-25T10:39:58.436Z,38.00
2018-02-25T10:42:26.731Z,37.90
2018-02-25T10:44:55.005Z,36.60
2018-02-25T10:47:24.769Z,36.60
2018-02-25T10:49:53.056Z,36.60
2018-02-25T10:52:21.323Z,35.60
2018-02-25T10:54:49.636Z,36.90
2018-02-25T10:57:19.026Z,36.70
2018-02-25T10:59:47.279Z,36.60
2018-02-25T11:02:15.554Z,35.70
2018-02-25T11:04:44.572Z,34.40
2018-02-25T11:07:12.850Z,34.40
2018-02-25T11:09:41.131Z,34.80
2018-02-25T11:12:09.444Z,34.50
2018-02-25T11:14:37.695Z,34.80
2018-02-25T11:17:06.025Z,34.30
2018-02-25T11:19:34.335Z,34.70
2018-02-25T11:22:02.633Z,34.80
2018-02-25T11:24:31.545Z,34.10
2018-02-25T11:27:00.626Z,34.30
2018-02-25T11:29:28.918Z,34.10
2018-02-25T11:31:57.163Z,33.20
2018-02-25T11:34:25.570Z,33.10
2018-02-25T11:36:54.562Z,32.90
2018-02-25T11:39:22.827Z,32.80
2018-02-25T11:41:51.107Z,32.60
2018-02-25T11:44:19.383Z,32.30
2018-02-25T11:46:47.649Z,31.50
2018-02-25T11:49:16.272Z,30.40
2018-02-25T11:51:44.559Z,30.00
2018-02-25T11:54:13.715Z,30.30
2018-02-25T11:56:42.077Z,31.10
2018-02-25T11:59:10.333Z,32.00
2018-02-25T12:01:39.401Z,31.50
2018-02-25T12:04:08.607Z,31.50
2018-02-25T12:06:38.630Z,30.50
2018-02-25T12:09:07.663Z,30.50
2018-02-25T12:11:35.920Z,30.50
2018-02-25T12:14:05.886Z,33.10
2018-02-25T12:16:34.204Z,33.10
2018-02-25T12:19:03.244Z,29.70
2018-02-25T12:21:31.530Z,29.60
2018-02-25T12:23:59.788Z,29.00
2018-02-25T12:26:28.058Z,29.90
2018-02-25T12:28:56.361Z,29.50
2018-02-25T12:31:24.687Z,27.90
2018-02-25T12:33:53.008Z,27.50
2018-02-25T12:36:21.270Z,27.00
2018-02-25T12:38:49.770Z,27.40
2018-02-25T12:41:18.032Z,28.00
2018-02-25T12:43:46.308Z,25.80
2018-02-25T12:46:15.881Z,26.60
2018-02-25T12:48:44.887Z,27.10
2018-02-25T12:51:13.933Z,27.00
2018-02-25T12:53:42.200Z,27.00
2018-02-25T12:56:10.533Z,26.70
2018-02-25T12:58:39.715Z,26.40
2018-02-25T13:01:07.994Z,26.40
2018-02-25T13:03:36.227Z,26.70
2018-02-25T13:06:04.529Z,27.40
2018-02-25T13:08:32.830Z,27.50
2018-02-25T13:11:01.083Z,27.00
2018-02-25T13:13:30.158Z,26.10
2018-02-25T13:15:59.276Z,26.00
2018-02-25T13:18:27.545Z,26.30
2018-02-25T13:20:55.816Z,26.20
2018-02-25T13:23:24.080Z,26.70
2018-02-25T13:25:53.083Z,27.10
2018-02-25T13:28:21.378Z,26.10
2018-02-25T13:30:49.663Z,25.60
2018-02-25T13:33:17.893Z,25.80
2018-02-25T13:35:46.221Z,25.30
2018-02-25T13:38:14.503Z,25.80
2018-02-25T13:40:42.794Z,25.50
2018-02-25T13:43:12.314Z,25.90
2018-02-25T13:45:40.586Z,25.90
2018-02-25T13:48:08.844Z,25.70
2018-02-25T13:50:37.099Z,25.60
2018-02-25T13:53:05.515Z,25.30
2018-02-25T13:55:33.883Z,25.10
2018-02-25T13:58:02.153Z,25.70
2018-02-25T14:00:30.390Z,27.00
2018-02-25T14:02:58.802Z,26.70
2018-02-25T14:05:27.586Z,27.20
2018-02-25T14:07:55.848Z,28.10
2018-02-25T14:10:24.119Z,28.00
2018-02-25T14:12:52.413Z,28.70
2018-02-25T14:15:20.735Z,27.40
2018-02-25T14:17:48.990Z,28.50
2018-02-25T14:20:17.257Z,29.30
2018-02-25T14:22:45.563Z,30.00
2018-02-25T14:25:13.821Z,29.70
2018-02-25T14:27:42.515Z,30.70
2018-02-25T14:30:10.773Z,31.20
2018-02-25T14:32:39.434Z,31.40
2018-02-25T14:35:08.648Z,30.90
2018-02-25T14:37:36.925Z,30.10
2018-02-25T14:40:07.290Z,31.30
2018-02-25T14:42:35.544Z,31.20
2018-02-25T14:45:04.890Z,32.10
2018-02-25T14:47:33.977Z,34.90
2018-02-25T14:50:03.074Z,35.00
2018-02-25T14:52:31.335Z,36.50
2018-02-25T14:55:01.560Z,36.20
2018-02-25T14:57:30.653Z,35.80
2018-02-25T14:59:59.000Z,35.70
2018-02-25T15:02:27.244Z,35.70
2018-02-25T15:04:56.298Z,35.80
2018-02-25T15:07:24.583Z,35.80
2018-02-25T15:09:52.875Z,36.10
2018-02-25T15:12:21.319Z,36.20
2018-02-25T15:14:49.587Z,36.30
2018-02-25T15:17:17.907Z,36.80
2018-02-25T15:19:46.238Z,37.50
2018-02-25T15:22:14.542Z,38.10
2018-02-25T15:24:42.953Z,38.00
2018-02-25T15:27:12.057Z,38.40
2018-02-25T15:29:41.098Z,38.70
2018-02-25T15:32:10.288Z,38.70
2018-02-25T15:34:38.570Z,39.50
2018-02-25T15:37:06.837Z,40.70
2018-02-25T15:39:36.078Z,41.40
2018-02-25T15:42:05.216Z,42.10
2018-02-25T15:44:33.496Z,43.00
2018-02-25T15:47:01.830Z,43.70
2018-02-25T15:49:31.350Z,44.40
2018-02-25T15:51:59.600Z,45.10
2018-02-25T15:54:28.058Z,46.00
2018-02-25T15:56:58.136Z,45.40
2018-02-25T15:59:26.443Z,46.30
2018-02-25T16:01:56.933Z,46.50
2018-02-25T16:04:26.040Z,46.30
2018-02-25T16:06:54.313Z,46.40
2018-02-25T16:09:22.597Z,47.00
2018-02-25T16:11:50.889Z,48.10
2018-02-25T16:14:19.221Z,49.00
2018-02-25T16:16:48.974Z,49.50
2018-02-25T16:19:17.756Z,49.40
2018-02-25T16:21:46.835Z,50.10
2018-02-25T16:24:15.961Z,50.20
2018-02-25T16:26:45.845Z,51.40
2018-02-25T16:29:14.102Z,51.30
2018-02-25T16:31:42.581Z,50.70
2018-02-25T16:34:10.866Z,51.60
2018-02-25T16:36:39.121Z,51.60
2018-02-25T16:39:07.455Z,52.40
2018-02-25T16:41:35.741Z,53.10
2018-02-25T16:44:04.813Z,54.00
2018-02-25T16:46:33.107Z,54.00
2018-02-25T16:49:01.683Z,54.40
2018-02-25T16:51:29.937Z,55.30
2018-02-25T16:53:58.226Z,56.40
2018-02-25T16:56:26.520Z,56.00
2018-02-25T16:58:56.632Z,56.70
2018-02-25T17:01:24.885Z,56.70
2018-02-25T17:03:53.186Z,56.60
2018-02-25T17:06:22.075Z,56.50
2018-02-25T17:08:50.409Z,57.00
2018-02-25T17:11:18.682Z,58.50
2018-02-25T17:13:46.959Z,59.20
2018-02-25T17:16:15.232Z,61.30
2018-02-25T17:18:43.529Z,61.30
2018-02-25T17:21:11.846Z,62.80
2018-02-25T17:23:40.121Z,64.70
2018-02-25T17:26:08.416Z,65.80
2018-02-25T17:28:37.472Z,68.20
2018-02-25T17:31:05.797Z,68.20
2018-02-25T17:33:34.843Z,71.00
2018-02-25T17:36:03.124Z,70.80
2018-02-25T17:38:31.458Z,72.50
2018-02-25T17:41:00.476Z,76.10
2018-02-25T17:43:28.794Z,76.10
2018-02-25T17:45:58.008Z,77.90
2018-02-25T17:48:27.081Z,83.30
2018-02-25T17:50:55.358Z,83.20
2018-02-25T17:53:23.646Z,84.40
2018-02-25T17:55:52.561Z,85.80
2018-02-25T17:58:20.797Z,86.90
2018-02-25T18:00:49.120Z,87.40
2018-02-25T18:03:17.408Z,87.80
2018-02-25T18:05:46.460Z,86.40
2018-02-25T18:08:14.755Z,86.40
2018-02-25T18:10:43.051Z,87.20
2018-02-25T18:13:12.086Z,87.50
2018-02-25T18:15:40.407Z,87.50
2018-02-25T18:18:08.747Z,87.70
2018-02-25T18:20:37.133Z,88.60
2018-02-25T18:23:07.523Z,88.00
2018-02-25T18:25:36.848Z,88.30
2018-02-25T18:28:05.586Z,89.20
2018-02-25T18:30:33.871Z,89.70
2018-02-25T18:33:02.218Z,90.00
2018-02-25T18:35:30.540Z,90.30
2018-02-25T18:38:00.413Z,90.20
2018-02-25T18:40:30.399Z,90.20
2018-02-25T18:42:58.705Z,90.30
2018-02-25T18:45:28.411Z,90.00
2018-02-25T18:47:57.790Z,90.30
2018-02-25T18:50:26.103Z,90.20
2018-02-25T18:52:54.423Z,90.10
2018-02-25T18:55:23.804Z,90.90
2018-02-25T18:57:52.103Z,90.80
2018-02-25T19:00:21.226Z,91.20
2018-02-25T19:02:49.494Z,91.10
2018-02-25T19:05:18.582Z,91.60
2018-02-25T19:07:47.751Z,91.70
2018-02-25T19:10:16.880Z,91.90
2018-02-25T19:12:45.905Z,92.00
2018-02-25T19:15:14.221Z,92.00
2018-02-25T19:17:43.284Z,92.30
2018-02-25T19:20:11.702Z,92.30
2018-02-25T19:22:39.969Z,92.30
2018-02-25T19:25:09.084Z,92.40
2018-02-25T19:27:38.182Z,92.40
2018-02-25T19:30:07.812Z,92.40
2018-02-25T19:32:37.315Z,92.90
2018-02-25T19:35:08.112Z,93.10
2018-02-25T19:37:42.695Z,93.30
2018-02-25T19:40:11.455Z,93.50
2018-02-25T19:42:41.159Z,93.90
2018-02-25T19:45:10.327Z,94.00
2018-02-25T19:47:38.642Z,94.20
2018-02-25T19:50:06.964Z,94.50
2018-02-25T19:52:38.718Z,94.90
2018-02-25T19:55:09.000Z,94.90
2018-02-25T19:57:38.973Z,95.10
2018-02-25T20:00:07.301Z,95.30
2018-02-25T20:02:37.717Z,95.60
2018-02-25T20:05:07.619Z,96.00
2018-02-25T20:07:39.150Z,96.40
2018-02-25T20:10:09.376Z,96.80
2018-02-25T20:12:37.988Z,96.80
2018-02-25T20:15:06.991Z,97.00
2018-02-25T20:17:36.296Z,97.00
2018-02-25T20:20:04.766Z,97.20
2018-02-25T20:22:33.048Z,97.30
2018-02-25T20:25:01.307Z,97.70
2018-02-25T20:27:29.673Z,98.00
2018-02-25T20:29:58.726Z,98.30
2018-02-25T20:32:28.429Z,98.50
2018-02-25T20:34:56.860Z,98.80
2018-02-25T20:37:25.895Z,99.00
2018-02-25T20:39:56.794Z,99.50
2018-02-25T20:42:26.614Z,99.30
2018-02-25T20:44:54.920Z,99.50
2018-02-25T20:47:24.744Z,99.70
2018-02-25T20:49:53.310Z,99.80
2018-02-25T20:52:22.587Z,99.70
2018-02-25T20:54:51.676Z,99.80
2018-02-25T20:57:20.811Z,99.90
2018-02-25T20:59:49.122Z,99.90
2018-02-25T21:02:20.162Z,99.90
2018-02-25T21:04:49.448Z,99.90
2018-02-25T21:07:18.107Z,99.90
2018-02-25T21:09:46.463Z,99.90
2018-02-25T21:12:15.481Z,99.90
2018-02-25T21:14:44.710Z,99.90
2018-02-25T21:17:13.781Z,99.90
2018-02-25T21:19:43.885Z,99.90
2018-02-25T21:22:12.142Z,99.90
2018-02-25T21:24:40.674Z,99.90
2018-02-25T21:27:08.927Z,99.90
2018-02-25T21:29:38.766Z,99.90
2018-02-25T21:32:08.555Z,99.90
2018-02-25T21:34:36.855Z,99.90
2018-02-25T21:37:05.310Z,99.90
2018-02-25T21:39:33.606Z,99.90
2018-02-25T21:42:02.686Z,99.90
2018-02-25T21:44:30.989Z,99.90
2018-02-25T21:46:59.443Z,99.90
2018-02-25T21:49:27.842Z,99.90
2018-02-25T21:51:56.177Z,99.90
2018-02-25T21:54:30.171Z,99.90
2018-02-25T21:57:04.187Z,99.90
2018-02-25T21:59:38.037Z,99.90
2018-02-25T22:02:11.967Z,99.90
2018-02-25T22:04:40.269Z,99.90
2018-02-25T22:07:08.897Z,99.90
2018-02-25T22:09:37.185Z,99.90
2018-02-25T22:12:05.505Z,99.90
2018-02-25T22:14:34.551Z,99.90
2018-02-25T22:17:05.739Z,99.90
2018-02-25T22:19:34.770Z,99.90
2018-02-25T22:22:03.252Z,99.90
2018-02-25T22:24:31.536Z,99.90
2018-02-25T22:27:00.769Z,99.90
2018-02-25T22:29:29.016Z,99.90
2018-02-25T22:31:57.301Z,99.90
2018-02-25T22:34:25.602Z,99.90
2018-02-25T22:36:53.909Z,99.90
2018-02-25T22:39:22.184Z,99.90
2018-02-25T22:41:51.231Z,99.90
2018-02-25T22:44:19.708Z,99.90
2018-02-25T22:46:48.862Z,99.90
2018-02-25T22:49:17.196Z,99.90
2018-02-25T22:51:45.449Z,99.90
2018-02-25T22:54:13.737Z,99.90
2018-02-25T22:56:42.017Z,99.90
2018-02-25T22:59:10.272Z,99.90
2018-02-25T23:01:38.548Z,99.90
2018-02-25T23:04:06.822Z,99.90
2018-02-25T23:06:35.106Z,99.90
2018-02-25T23:09:04.194Z,99.90
2018-02-25T23:11:32.558Z,99.90
2018-02-25T23:14:00.826Z,99.90
2018-02-25T23:16:29.876Z,99.90
2018-02-25T23:18:58.508Z,99.90
2018-02-25T23:21:26.814Z,99.90
2018-02-25T23:23:55.824Z,99.90
2018-02-25T23:26:24.146Z,99.90
2018-02-25T23:28:52.402Z,99.90
2018-02-25T23:31:20.923Z,99.90
2018-02-25T23:33:49.991Z,99.90
2018-02-25T23:36:18.249Z,99.90
2018-02-25T23:38:46.526Z,99.90
2018-02-25T23:41:14.947Z,99.90
2018-02-25T23:43:43.209Z,99.90
2018-02-25T23:46:11.622Z,99.90
2018-02-25T23:48:40.670Z,99.90
2018-02-25T23:51:09.067Z,99.90
2018-02-25T23:53:37.481Z,99.90
2018-02-25T23:56:06.162Z,99.90
2018-02-25T23:58:34.411Z,99.90
